sensor_id;sensor_type;location;lat;lon;timestamp;P1;durP1;ratioP1;P2;durP2;ratioP2
40745;SDS011;26454;51.164;4.488;2023-03-01T00:01:05;15.55;;;10.98;;
40745;SDS011;26454;51.164;4.488;2023-03-01T00:03:32;17.70;;;12.20;;
40745;SDS011;26454;51.164;4.488;2023-03-01T00:05:58;15.75;;;11.85;;
40745;SDS011;26454;51.164;4.488;2023-03-01T00:08:25;15.68;;;11.65;;
40745;SDS011;26454;51.164;4.488;2023-03-01T00:13:27;13.85;;;12.48;;
40745;SDS011;26454;51.164;4.488;2023-03-01T00:15:54;14.45;;;11.88;;
40745;SDS011;26454;51.164;4.488;2023-03-01T00:18:20;15.13;;;11.52;;
40745;SDS011;26454;51.164;4.488;2023-03-01T00:20:54;16.77;;;12.18;;
40745;SDS011;26454;51.164;4.488;2023-03-01T00:23:21;13.02;;;11.55;;
40745;SDS011;26454;51.164;4.488;2023-03-01T00:25:48;15.43;;;11.40;;
40745;SDS011;26454;51.164;4.488;2023-03-01T00:28:14;13.20;;;11.13;;
40745;SDS011;26454;51.164;4.488;2023-03-01T00:30:40;18.33;;;12.45;;
40745;SDS011;26454;51.164;4.488;2023-03-01T00:33:07;18.63;;;12.48;;
40745;SDS011;26454;51.164;4.488;2023-03-01T00:35:33;17.92;;;12.00;;
40745;SDS011;26454;51.164;4.488;2023-03-01T00:38:03;14.30;;;11.75;;
40745;SDS011;26454;51.164;4.488;2023-03-01T00:40:31;14.55;;;11.40;;
40745;SDS011;26454;51.164;4.488;2023-03-01T00:42:59;16.52;;;12.02;;
40745;SDS011;26454;51.164;4.488;2023-03-01T00:45:26;13.45;;;10.43;;
40745;SDS011;26454;51.164;4.488;2023-03-01T00:47:53;16.45;;;11.80;;
40745;SDS011;26454;51.164;4.488;2023-03-01T00:50:20;16.45;;;12.23;;
40745;SDS011;26454;51.164;4.488;2023-03-01T00:52:46;22.25;;;12.98;;
40745;SDS011;26454;51.164;4.488;2023-03-01T00:55:15;15.13;;;11.88;;
40745;SDS011;26454;51.164;4.488;2023-03-01T00:57:45;17.45;;;12.25;;
40745;SDS011;26454;51.164;4.488;2023-03-01T01:00:11;19.42;;;12.52;;
40745;SDS011;26454;51.164;4.488;2023-03-01T01:02:37;13.40;;;10.38;;
40745;SDS011;26454;51.164;4.488;2023-03-01T01:05:06;14.10;;;10.98;;
40745;SDS011;26454;51.164;4.488;2023-03-01T01:07:32;18.88;;;12.90;;
40745;SDS011;26454;51.164;4.488;2023-03-01T01:09:59;15.73;;;12.05;;
40745;SDS011;26454;51.164;4.488;2023-03-01T01:12:25;21.52;;;12.63;;
40745;SDS011;26454;51.164;4.488;2023-03-01T01:14:51;16.35;;;12.43;;
40745;SDS011;26454;51.164;4.488;2023-03-01T01:17:17;17.40;;;12.25;;
40745;SDS011;26454;51.164;4.488;2023-03-01T01:19:46;15.15;;;12.23;;
40745;SDS011;26454;51.164;4.488;2023-03-01T01:22:13;16.40;;;12.68;;
40745;SDS011;26454;51.164;4.488;2023-03-01T01:24:39;15.48;;;12.48;;
40745;SDS011;26454;51.164;4.488;2023-03-01T01:27:06;18.52;;;13.43;;
40745;SDS011;26454;51.164;4.488;2023-03-01T01:29:32;14.88;;;12.02;;
40745;SDS011;26454;51.164;4.488;2023-03-01T01:31:59;16.58;;;12.75;;
40745;SDS011;26454;51.164;4.488;2023-03-01T01:34:25;14.38;;;11.77;;
40745;SDS011;26454;51.164;4.488;2023-03-01T01:36:52;13.55;;;11.52;;
40745;SDS011;26454;51.164;4.488;2023-03-01T01:39:27;14.50;;;12.20;;
40745;SDS011;26454;51.164;4.488;2023-03-01T01:41:54;15.73;;;12.18;;
40745;SDS011;26454;51.164;4.488;2023-03-01T01:44:21;17.60;;;12.98;;
40745;SDS011;26454;51.164;4.488;2023-03-01T01:46:57;20.83;;;13.82;;
40745;SDS011;26454;51.164;4.488;2023-03-01T01:49:33;16.33;;;12.75;;
40745;SDS011;26454;51.164;4.488;2023-03-01T01:52:08;13.73;;;11.57;;
40745;SDS011;26454;51.164;4.488;2023-03-01T01:54:40;16.00;;;13.15;;
40745;SDS011;26454;51.164;4.488;2023-03-01T01:57:11;20.02;;;13.10;;
40745;SDS011;26454;51.164;4.488;2023-03-01T01:59:37;16.85;;;12.68;;
40745;SDS011;26454;51.164;4.488;2023-03-01T02:02:04;22.77;;;13.40;;
40745;SDS011;26454;51.164;4.488;2023-03-01T02:04:31;22.75;;;13.93;;
40745;SDS011;26454;51.164;4.488;2023-03-01T02:06:59;16.55;;;13.18;;
40745;SDS011;26454;51.164;4.488;2023-03-01T02:09:27;17.58;;;12.52;;
40745;SDS011;26454;51.164;4.488;2023-03-01T02:11:54;17.58;;;13.10;;
40745;SDS011;26454;51.164;4.488;2023-03-01T02:14:21;17.42;;;12.50;;
40745;SDS011;26454;51.164;4.488;2023-03-01T02:16:48;16.25;;;13.02;;
40745;SDS011;26454;51.164;4.488;2023-03-01T02:19:19;16.77;;;12.35;;
40745;SDS011;26454;51.164;4.488;2023-03-01T02:21:51;18.13;;;11.77;;
40745;SDS011;26454;51.164;4.488;2023-03-01T02:24:31;17.23;;;12.07;;
40745;SDS011;26454;51.164;4.488;2023-03-01T02:26:57;14.23;;;12.30;;
40745;SDS011;26454;51.164;4.488;2023-03-01T02:29:24;19.73;;;13.02;;
40745;SDS011;26454;51.164;4.488;2023-03-01T02:31:52;18.83;;;11.80;;
40745;SDS011;26454;51.164;4.488;2023-03-01T02:34:22;21.13;;;13.43;;
40745;SDS011;26454;51.164;4.488;2023-03-01T02:36:53;23.42;;;14.60;;
40745;SDS011;26454;51.164;4.488;2023-03-01T02:39:23;16.70;;;12.32;;
40745;SDS011;26454;51.164;4.488;2023-03-01T02:41:53;18.92;;;13.70;;
40745;SDS011;26454;51.164;4.488;2023-03-01T02:44:20;17.40;;;11.85;;
40745;SDS011;26454;51.164;4.488;2023-03-01T02:46:48;15.48;;;12.40;;
40745;SDS011;26454;51.164;4.488;2023-03-01T02:49:18;17.55;;;12.85;;
40745;SDS011;26454;51.164;4.488;2023-03-01T02:51:52;17.77;;;12.10;;
40745;SDS011;26454;51.164;4.488;2023-03-01T02:56:59;18.13;;;12.13;;
40745;SDS011;26454;51.164;4.488;2023-03-01T02:59:27;17.58;;;12.43;;
40745;SDS011;26454;51.164;4.488;2023-03-01T03:01:54;19.10;;;12.18;;
40745;SDS011;26454;51.164;4.488;2023-03-01T03:04:20;16.90;;;12.57;;
40745;SDS011;26454;51.164;4.488;2023-03-01T03:06:49;14.95;;;11.73;;
40745;SDS011;26454;51.164;4.488;2023-03-01T03:09:16;18.02;;;13.15;;
40745;SDS011;26454;51.164;4.488;2023-03-01T03:11:42;15.25;;;13.13;;
40745;SDS011;26454;51.164;4.488;2023-03-01T03:14:09;25.02;;;12.18;;
40745;SDS011;26454;51.164;4.488;2023-03-01T03:16:45;17.48;;;12.05;;
40745;SDS011;26454;51.164;4.488;2023-03-01T03:19:12;13.82;;;11.80;;
40745;SDS011;26454;51.164;4.488;2023-03-01T03:21:38;17.17;;;12.10;;
40745;SDS011;26454;51.164;4.488;2023-03-01T03:24:04;16.00;;;11.35;;
40745;SDS011;26454;51.164;4.488;2023-03-01T03:26:31;17.60;;;12.10;;
40745;SDS011;26454;51.164;4.488;2023-03-01T03:28:57;18.92;;;11.48;;
40745;SDS011;26454;51.164;4.488;2023-03-01T03:31:23;16.88;;;12.27;;
40745;SDS011;26454;51.164;4.488;2023-03-01T03:33:49;19.55;;;12.40;;
40745;SDS011;26454;51.164;4.488;2023-03-01T03:36:16;16.67;;;12.27;;
40745;SDS011;26454;51.164;4.488;2023-03-01T03:38:43;15.20;;;11.13;;
40745;SDS011;26454;51.164;4.488;2023-03-01T03:41:10;18.05;;;12.23;;
40745;SDS011;26454;51.164;4.488;2023-03-01T03:43:36;18.92;;;11.50;;
40745;SDS011;26454;51.164;4.488;2023-03-01T03:46:03;18.90;;;12.40;;
40745;SDS011;26454;51.164;4.488;2023-03-01T03:48:31;15.57;;;11.65;;
40745;SDS011;26454;51.164;4.488;2023-03-01T03:50:58;17.30;;;13.18;;
40745;SDS011;26454;51.164;4.488;2023-03-01T03:53:25;15.38;;;12.27;;
40745;SDS011;26454;51.164;4.488;2023-03-01T03:55:51;17.35;;;12.18;;
40745;SDS011;26454;51.164;4.488;2023-03-01T03:58:18;20.42;;;13.40;;
40745;SDS011;26454;51.164;4.488;2023-03-01T04:00:44;20.33;;;12.32;;
40745;SDS011;26454;51.164;4.488;2023-03-01T04:03:12;19.75;;;13.25;;
40745;SDS011;26454;51.164;4.488;2023-03-01T04:05:39;15.05;;;11.55;;
40745;SDS011;26454;51.164;4.488;2023-03-01T04:08:05;15.57;;;12.30;;
40745;SDS011;26454;51.164;4.488;2023-03-01T04:10:33;18.60;;;12.50;;
40745;SDS011;26454;51.164;4.488;2023-03-01T04:13:02;16.80;;;13.50;;
40745;SDS011;26454;51.164;4.488;2023-03-01T04:15:29;17.55;;;12.65;;
40745;SDS011;26454;51.164;4.488;2023-03-01T04:17:57;19.75;;;12.55;;
40745;SDS011;26454;51.164;4.488;2023-03-01T04:20:25;17.50;;;12.10;;
40745;SDS011;26454;51.164;4.488;2023-03-01T04:22:57;18.70;;;13.02;;
40745;SDS011;26454;51.164;4.488;2023-03-01T04:25:24;19.08;;;12.48;;
40745;SDS011;26454;51.164;4.488;2023-03-01T04:27:50;19.63;;;12.57;;
40745;SDS011;26454;51.164;4.488;2023-03-01T04:30:17;15.05;;;12.25;;
40745;SDS011;26454;51.164;4.488;2023-03-01T04:32:43;18.23;;;13.40;;
40745;SDS011;26454;51.164;4.488;2023-03-01T04:35:09;15.98;;;12.55;;
40745;SDS011;26454;51.164;4.488;2023-03-01T04:37:35;18.08;;;11.98;;
40745;SDS011;26454;51.164;4.488;2023-03-01T04:40:03;21.13;;;11.93;;
40745;SDS011;26454;51.164;4.488;2023-03-01T04:42:38;17.95;;;12.48;;
40745;SDS011;26454;51.164;4.488;2023-03-01T04:45:04;13.00;;;11.38;;
40745;SDS011;26454;51.164;4.488;2023-03-01T04:47:37;18.08;;;12.90;;
40745;SDS011;26454;51.164;4.488;2023-03-01T04:50:05;16.73;;;12.40;;
40745;SDS011;26454;51.164;4.488;2023-03-01T04:52:31;20.13;;;12.63;;
40745;SDS011;26454;51.164;4.488;2023-03-01T04:54:59;15.88;;;12.40;;
40745;SDS011;26454;51.164;4.488;2023-03-01T04:57:25;16.40;;;13.18;;
40745;SDS011;26454;51.164;4.488;2023-03-01T04:59:51;16.63;;;12.50;;
40745;SDS011;26454;51.164;4.488;2023-03-01T05:02:17;17.00;;;12.23;;
40745;SDS011;26454;51.164;4.488;2023-03-01T05:04:43;18.85;;;12.35;;
40745;SDS011;26454;51.164;4.488;2023-03-01T05:07:10;19.17;;;13.23;;
40745;SDS011;26454;51.164;4.488;2023-03-01T05:09:38;14.95;;;11.80;;
40745;SDS011;26454;51.164;4.488;2023-03-01T05:12:04;18.52;;;13.32;;
40745;SDS011;26454;51.164;4.488;2023-03-01T05:14:30;16.35;;;11.52;;
40745;SDS011;26454;51.164;4.488;2023-03-01T05:16:56;17.25;;;13.05;;
40745;SDS011;26454;51.164;4.488;2023-03-01T05:19:28;20.17;;;12.52;;
40745;SDS011;26454;51.164;4.488;2023-03-01T05:21:56;13.85;;;12.18;;
40745;SDS011;26454;51.164;4.488;2023-03-01T05:24:29;18.25;;;13.50;;
40745;SDS011;26454;51.164;4.488;2023-03-01T05:26:56;17.73;;;12.82;;
40745;SDS011;26454;51.164;4.488;2023-03-01T05:29:23;17.30;;;12.55;;
40745;SDS011;26454;51.164;4.488;2023-03-01T05:31:51;17.02;;;11.65;;
40745;SDS011;26454;51.164;4.488;2023-03-01T05:34:18;19.75;;;13.68;;
40745;SDS011;26454;51.164;4.488;2023-03-01T05:36:47;21.75;;;13.52;;
40745;SDS011;26454;51.164;4.488;2023-03-01T05:39:16;16.50;;;13.07;;
40745;SDS011;26454;51.164;4.488;2023-03-01T05:41:42;17.33;;;12.52;;
40745;SDS011;26454;51.164;4.488;2023-03-01T05:44:08;19.35;;;13.40;;
40745;SDS011;26454;51.164;4.488;2023-03-01T05:46:34;19.30;;;13.18;;
40745;SDS011;26454;51.164;4.488;2023-03-01T05:49:00;20.27;;;13.63;;
40745;SDS011;26454;51.164;4.488;2023-03-01T05:51:27;17.83;;;13.13;;
40745;SDS011;26454;51.164;4.488;2023-03-01T05:53:53;20.05;;;12.63;;
40745;SDS011;26454;51.164;4.488;2023-03-01T05:56:19;19.17;;;13.18;;
40745;SDS011;26454;51.164;4.488;2023-03-01T05:58:48;18.52;;;12.40;;
40745;SDS011;26454;51.164;4.488;2023-03-01T06:01:14;17.80;;;12.70;;
40745;SDS011;26454;51.164;4.488;2023-03-01T06:03:41;17.23;;;13.70;;
40745;SDS011;26454;51.164;4.488;2023-03-01T06:06:09;17.42;;;12.63;;
40745;SDS011;26454;51.164;4.488;2023-03-01T06:08:35;17.13;;;12.32;;
40745;SDS011;26454;51.164;4.488;2023-03-01T06:11:01;16.40;;;12.95;;
40745;SDS011;26454;51.164;4.488;2023-03-01T06:13:28;21.63;;;13.60;;
40745;SDS011;26454;51.164;4.488;2023-03-01T06:15:54;20.27;;;13.65;;
40745;SDS011;26454;51.164;4.488;2023-03-01T06:18:21;17.42;;;13.23;;
40745;SDS011;26454;51.164;4.488;2023-03-01T06:20:54;19.48;;;13.70;;
40745;SDS011;26454;51.164;4.488;2023-03-01T06:23:21;18.17;;;13.38;;
40745;SDS011;26454;51.164;4.488;2023-03-01T06:25:47;18.20;;;13.82;;
40745;SDS011;26454;51.164;4.488;2023-03-01T06:28:13;21.15;;;13.45;;
40745;SDS011;26454;51.164;4.488;2023-03-01T06:30:40;18.75;;;13.25;;
40745;SDS011;26454;51.164;4.488;2023-03-01T06:33:06;17.75;;;13.07;;
40745;SDS011;26454;51.164;4.488;2023-03-01T06:35:32;37.13;;;20.85;;
40745;SDS011;26454;51.164;4.488;2023-03-01T06:37:59;53.80;;;26.45;;
40745;SDS011;26454;51.164;4.488;2023-03-01T06:40:26;25.60;;;15.25;;
40745;SDS011;26454;51.164;4.488;2023-03-01T06:42:52;26.70;;;14.63;;
40745;SDS011;26454;51.164;4.488;2023-03-01T06:45:20;20.27;;;14.25;;
40745;SDS011;26454;51.164;4.488;2023-03-01T06:47:47;19.63;;;12.98;;
40745;SDS011;26454;51.164;4.488;2023-03-01T06:50:14;21.88;;;13.77;;
40745;SDS011;26454;51.164;4.488;2023-03-01T06:52:43;19.13;;;14.30;;
40745;SDS011;26454;51.164;4.488;2023-03-01T06:55:10;25.02;;;14.68;;
40745;SDS011;26454;51.164;4.488;2023-03-01T06:57:37;20.63;;;14.18;;
40745;SDS011;26454;51.164;4.488;2023-03-01T07:00:04;25.80;;;14.55;;
40745;SDS011;26454;51.164;4.488;2023-03-01T07:02:31;19.20;;;13.30;;
40745;SDS011;26454;51.164;4.488;2023-03-01T07:04:57;21.50;;;14.80;;
40745;SDS011;26454;51.164;4.488;2023-03-01T07:07:23;20.17;;;12.60;;
40745;SDS011;26454;51.164;4.488;2023-03-01T07:09:53;18.52;;;14.10;;
40745;SDS011;26454;51.164;4.488;2023-03-01T07:12:20;24.63;;;14.27;;
40745;SDS011;26454;51.164;4.488;2023-03-01T07:14:47;19.98;;;12.43;;
40745;SDS011;26454;51.164;4.488;2023-03-01T07:17:16;20.05;;;13.30;;
40745;SDS011;26454;51.164;4.488;2023-03-01T07:19:45;16.38;;;11.88;;
40745;SDS011;26454;51.164;4.488;2023-03-01T07:22:11;18.05;;;12.85;;
40745;SDS011;26454;51.164;4.488;2023-03-01T07:24:47;25.67;;;13.32;;
40745;SDS011;26454;51.164;4.488;2023-03-01T07:27:13;21.23;;;14.38;;
40745;SDS011;26454;51.164;4.488;2023-03-01T07:29:49;21.88;;;13.65;;
40745;SDS011;26454;51.164;4.488;2023-03-01T07:32:16;20.63;;;12.68;;
40745;SDS011;26454;51.164;4.488;2023-03-01T07:34:45;20.08;;;13.43;;
40745;SDS011;26454;51.164;4.488;2023-03-01T07:37:14;19.98;;;12.68;;
40745;SDS011;26454;51.164;4.488;2023-03-01T07:39:40;20.63;;;12.70;;
40745;SDS011;26454;51.164;4.488;2023-03-01T07:42:06;15.82;;;12.38;;
40745;SDS011;26454;51.164;4.488;2023-03-01T07:44:33;18.90;;;11.57;;
40745;SDS011;26454;51.164;4.488;2023-03-01T07:47:00;17.45;;;11.75;;
40745;SDS011;26454;51.164;4.488;2023-03-01T07:49:26;19.50;;;12.93;;
40745;SDS011;26454;51.164;4.488;2023-03-01T07:51:52;15.05;;;11.00;;
40745;SDS011;26454;51.164;4.488;2023-03-01T07:54:18;13.63;;;10.80;;
40745;SDS011;26454;51.164;4.488;2023-03-01T07:56:45;19.13;;;12.40;;
40745;SDS011;26454;51.164;4.488;2023-03-01T07:59:11;18.13;;;11.98;;
40745;SDS011;26454;51.164;4.488;2023-03-01T08:01:37;14.80;;;11.13;;
40745;SDS011;26454;51.164;4.488;2023-03-01T08:04:03;17.08;;;12.05;;
40745;SDS011;26454;51.164;4.488;2023-03-01T08:06:33;20.25;;;11.68;;
40745;SDS011;26454;51.164;4.488;2023-03-01T08:09:00;22.75;;;10.90;;
40745;SDS011;26454;51.164;4.488;2023-03-01T08:11:26;17.77;;;12.02;;
40745;SDS011;26454;51.164;4.488;2023-03-01T08:13:54;17.80;;;11.23;;
40745;SDS011;26454;51.164;4.488;2023-03-01T08:16:22;17.63;;;11.00;;
40745;SDS011;26454;51.164;4.488;2023-03-01T08:18:50;13.77;;;10.37;;
40745;SDS011;26454;51.164;4.488;2023-03-01T08:21:17;14.50;;;11.05;;
40745;SDS011;26454;51.164;4.488;2023-03-01T08:23:44;14.50;;;11.00;;
40745;SDS011;26454;51.164;4.488;2023-03-01T08:26:19;18.88;;;11.30;;
40745;SDS011;26454;51.164;4.488;2023-03-01T08:28:45;14.23;;;10.40;;
40745;SDS011;26454;51.164;4.488;2023-03-01T08:31:14;16.73;;;11.35;;
40745;SDS011;26454;51.164;4.488;2023-03-01T08:33:40;14.77;;;10.30;;
40745;SDS011;26454;51.164;4.488;2023-03-01T08:36:06;15.77;;;11.20;;
40745;SDS011;26454;51.164;4.488;2023-03-01T08:38:33;16.83;;;10.35;;
40745;SDS011;26454;51.164;4.488;2023-03-01T08:41:00;19.48;;;11.27;;
40745;SDS011;26454;51.164;4.488;2023-03-01T08:43:26;15.73;;;11.57;;
40745;SDS011;26454;51.164;4.488;2023-03-01T08:45:52;15.45;;;11.27;;
40745;SDS011;26454;51.164;4.488;2023-03-01T08:48:18;14.52;;;10.57;;
40745;SDS011;26454;51.164;4.488;2023-03-01T08:50:45;18.63;;;12.15;;
40745;SDS011;26454;51.164;4.488;2023-03-01T08:53:12;17.88;;;10.63;;
40745;SDS011;26454;51.164;4.488;2023-03-01T08:55:42;13.65;;;10.65;;
40745;SDS011;26454;51.164;4.488;2023-03-01T08:58:09;17.52;;;10.27;;
40745;SDS011;26454;51.164;4.488;2023-03-01T09:00:35;27.58;;;10.85;;
40745;SDS011;26454;51.164;4.488;2023-03-01T09:03:02;14.65;;;10.57;;
40745;SDS011;26454;51.164;4.488;2023-03-01T09:05:31;13.38;;;10.35;;
40745;SDS011;26454;51.164;4.488;2023-03-01T09:07:59;16.50;;;11.32;;
40745;SDS011;26454;51.164;4.488;2023-03-01T09:10:26;17.38;;;10.77;;
40745;SDS011;26454;51.164;4.488;2023-03-01T09:12:52;15.82;;;10.50;;
40745;SDS011;26454;51.164;4.488;2023-03-01T09:15:18;14.80;;;10.75;;
40745;SDS011;26454;51.164;4.488;2023-03-01T09:17:45;14.45;;;10.50;;
40745;SDS011;26454;51.164;4.488;2023-03-01T09:20:23;13.90;;;10.75;;
40745;SDS011;26454;51.164;4.488;2023-03-01T09:22:50;11.60;;;10.10;;
40745;SDS011;26454;51.164;4.488;2023-03-01T09:25:17;23.67;;;11.40;;
40745;SDS011;26454;51.164;4.488;2023-03-01T09:27:44;17.35;;;10.40;;
40745;SDS011;26454;51.164;4.488;2023-03-01T09:30:10;15.35;;;10.85;;
40745;SDS011;26454;51.164;4.488;2023-03-01T09:32:36;16.27;;;11.27;;
40745;SDS011;26454;51.164;4.488;2023-03-01T09:35:08;16.77;;;9.45;;
40745;SDS011;26454;51.164;4.488;2023-03-01T09:37:41;16.70;;;9.18;;
40745;SDS011;26454;51.164;4.488;2023-03-01T09:40:12;13.93;;;10.10;;
40745;SDS011;26454;51.164;4.488;2023-03-01T09:45:26;17.00;;;10.63;;
40745;SDS011;26454;51.164;4.488;2023-03-01T09:47:53;14.77;;;10.32;;
40745;SDS011;26454;51.164;4.488;2023-03-01T09:50:20;14.18;;;10.05;;
40745;SDS011;26454;51.164;4.488;2023-03-01T09:55:31;11.32;;;9.13;;
40745;SDS011;26454;51.164;4.488;2023-03-01T09:58:06;12.63;;;9.48;;
40745;SDS011;26454;51.164;4.488;2023-03-01T10:03:10;12.40;;;10.07;;
40745;SDS011;26454;51.164;4.488;2023-03-01T10:05:48;12.48;;;9.15;;
40745;SDS011;26454;51.164;4.488;2023-03-01T10:08:23;12.35;;;9.27;;
40745;SDS011;26454;51.164;4.488;2023-03-01T10:10:50;14.98;;;9.65;;
40745;SDS011;26454;51.164;4.488;2023-03-01T10:15:59;12.20;;;8.73;;
40745;SDS011;26454;51.164;4.488;2023-03-01T10:21:01;17.48;;;10.35;;
40745;SDS011;26454;51.164;4.488;2023-03-01T10:23:29;16.58;;;9.43;;
40745;SDS011;26454;51.164;4.488;2023-03-01T10:28:39;13.75;;;9.95;;
40745;SDS011;26454;51.164;4.488;2023-03-01T10:31:12;13.88;;;9.10;;
40745;SDS011;26454;51.164;4.488;2023-03-01T10:33:40;14.65;;;9.13;;
40745;SDS011;26454;51.164;4.488;2023-03-01T10:36:07;11.57;;;8.88;;
40745;SDS011;26454;51.164;4.488;2023-03-01T10:41:10;11.70;;;8.40;;
40745;SDS011;26454;51.164;4.488;2023-03-01T10:43:46;13.25;;;8.35;;
40745;SDS011;26454;51.164;4.488;2023-03-01T10:49:05;14.57;;;8.30;;
40745;SDS011;26454;51.164;4.488;2023-03-01T10:51:33;14.80;;;9.90;;
40745;SDS011;26454;51.164;4.488;2023-03-01T10:54:09;17.83;;;8.38;;
40745;SDS011;26454;51.164;4.488;2023-03-01T10:56:46;13.90;;;8.68;;
40745;SDS011;26454;51.164;4.488;2023-03-01T10:59:20;17.25;;;9.50;;
40745;SDS011;26454;51.164;4.488;2023-03-01T11:01:47;11.63;;;8.60;;
40745;SDS011;26454;51.164;4.488;2023-03-01T11:04:27;11.40;;;8.73;;
40745;SDS011;26454;51.164;4.488;2023-03-01T11:07:00;13.07;;;8.63;;
40745;SDS011;26454;51.164;4.488;2023-03-01T11:09:30;11.07;;;8.20;;
40745;SDS011;26454;51.164;4.488;2023-03-01T11:12:03;11.73;;;8.57;;
40745;SDS011;26454;51.164;4.488;2023-03-01T11:14:33;11.27;;;8.45;;
40745;SDS011;26454;51.164;4.488;2023-03-01T11:17:02;11.82;;;8.23;;
40745;SDS011;26454;51.164;4.488;2023-03-01T11:19:29;9.07;;;7.45;;
40745;SDS011;26454;51.164;4.488;2023-03-01T11:27:16;11.52;;;7.80;;
40745;SDS011;26454;51.164;4.488;2023-03-01T11:29:45;9.27;;;7.82;;
40745;SDS011;26454;51.164;4.488;2023-03-01T11:32:12;11.23;;;8.18;;
40745;SDS011;26454;51.164;4.488;2023-03-01T11:34:44;12.23;;;7.50;;
40745;SDS011;26454;51.164;4.488;2023-03-01T11:37:26;10.27;;;8.38;;
40745;SDS011;26454;51.164;4.488;2023-03-01T11:39:57;12.55;;;7.43;;
40745;SDS011;26454;51.164;4.488;2023-03-01T11:45:05;9.25;;;8.00;;
40745;SDS011;26454;51.164;4.488;2023-03-01T11:50:12;14.50;;;7.47;;
40745;SDS011;26454;51.164;4.488;2023-03-01T11:52:46;11.70;;;7.63;;
40745;SDS011;26454;51.164;4.488;2023-03-01T11:55:18;9.02;;;7.53;;
40745;SDS011;26454;51.164;4.488;2023-03-01T12:03:07;12.55;;;7.55;;
40745;SDS011;26454;51.164;4.488;2023-03-01T12:10:54;10.07;;;7.28;;
40745;SDS011;26454;51.164;4.488;2023-03-01T12:16:13;10.45;;;7.07;;
40745;SDS011;26454;51.164;4.488;2023-03-01T12:21:29;10.93;;;7.35;;
40745;SDS011;26454;51.164;4.488;2023-03-01T12:24:02;9.25;;;7.25;;
40745;SDS011;26454;51.164;4.488;2023-03-01T12:26:32;12.88;;;8.98;;
40745;SDS011;26454;51.164;4.488;2023-03-01T12:29:02;9.38;;;8.10;;
40745;SDS011;26454;51.164;4.488;2023-03-01T12:31:40;14.88;;;7.90;;
40745;SDS011;26454;51.164;4.488;2023-03-01T12:36:47;9.63;;;7.88;;
40745;SDS011;26454;51.164;4.488;2023-03-01T12:39:30;8.70;;;6.93;;
40745;SDS011;26454;51.164;4.488;2023-03-01T12:47:16;8.93;;;6.95;;
40745;SDS011;26454;51.164;4.488;2023-03-01T12:49:45;8.10;;;6.95;;
40745;SDS011;26454;51.164;4.488;2023-03-01T12:52:19;9.27;;;7.18;;
40745;SDS011;26454;51.164;4.488;2023-03-01T12:54:48;9.55;;;6.63;;
40745;SDS011;26454;51.164;4.488;2023-03-01T12:57:16;10.48;;;7.22;;
40745;SDS011;26454;51.164;4.488;2023-03-01T12:59:51;11.02;;;7.78;;
40745;SDS011;26454;51.164;4.488;2023-03-01T13:02:23;10.60;;;8.05;;
40745;SDS011;26454;51.164;4.488;2023-03-01T13:04:56;10.68;;;7.20;;
40745;SDS011;26454;51.164;4.488;2023-03-01T13:10:08;10.05;;;7.47;;
40745;SDS011;26454;51.164;4.488;2023-03-01T13:17:50;13.98;;;7.78;;
40745;SDS011;26454;51.164;4.488;2023-03-01T13:20:19;15.23;;;7.53;;
40745;SDS011;26454;51.164;4.488;2023-03-01T13:22:46;9.98;;;7.13;;
40745;SDS011;26454;51.164;4.488;2023-03-01T13:25:16;9.25;;;7.00;;
40745;SDS011;26454;51.164;4.488;2023-03-01T13:27:44;10.85;;;6.40;;
40745;SDS011;26454;51.164;4.488;2023-03-01T13:32:46;11.57;;;6.60;;
40745;SDS011;26454;51.164;4.488;2023-03-01T13:38:36;11.55;;;7.43;;
40745;SDS011;26454;51.164;4.488;2023-03-01T13:43:35;9.30;;;6.25;;
40745;SDS011;26454;51.164;4.488;2023-03-01T13:46:07;13.80;;;6.85;;
40745;SDS011;26454;51.164;4.488;2023-03-01T13:48:34;7.68;;;6.05;;
40745;SDS011;26454;51.164;4.488;2023-03-01T13:51:02;11.48;;;7.25;;
40745;SDS011;26454;51.164;4.488;2023-03-01T13:53:30;11.30;;;6.63;;
40745;SDS011;26454;51.164;4.488;2023-03-01T13:55:59;13.23;;;6.68;;
40745;SDS011;26454;51.164;4.488;2023-03-01T13:58:29;11.90;;;6.53;;
40745;SDS011;26454;51.164;4.488;2023-03-01T14:01:03;13.13;;;7.05;;
40745;SDS011;26454;51.164;4.488;2023-03-01T14:03:39;12.60;;;7.00;;
40745;SDS011;26454;51.164;4.488;2023-03-01T14:06:08;10.25;;;7.10;;
40745;SDS011;26454;51.164;4.488;2023-03-01T14:08:36;11.32;;;7.63;;
40745;SDS011;26454;51.164;4.488;2023-03-01T14:11:10;14.13;;;7.40;;
40745;SDS011;26454;51.164;4.488;2023-03-01T14:19:27;10.23;;;7.20;;
40745;SDS011;26454;51.164;4.488;2023-03-01T14:22:03;12.75;;;7.53;;
40745;SDS011;26454;51.164;4.488;2023-03-01T14:24:32;9.45;;;7.28;;
40745;SDS011;26454;51.164;4.488;2023-03-01T14:27:01;8.32;;;7.20;;
40745;SDS011;26454;51.164;4.488;2023-03-01T14:29:32;10.52;;;7.13;;
40745;SDS011;26454;51.164;4.488;2023-03-01T14:32:09;11.18;;;7.75;;
40745;SDS011;26454;51.164;4.488;2023-03-01T14:34:35;9.65;;;6.50;;
40745;SDS011;26454;51.164;4.488;2023-03-01T14:39:47;12.98;;;7.38;;
40745;SDS011;26454;51.164;4.488;2023-03-01T14:42:14;13.30;;;7.75;;
40745;SDS011;26454;51.164;4.488;2023-03-01T14:44:41;15.05;;;8.02;;
40745;SDS011;26454;51.164;4.488;2023-03-01T14:47:11;8.98;;;7.07;;
40745;SDS011;26454;51.164;4.488;2023-03-01T14:49:38;10.13;;;7.20;;
40745;SDS011;26454;51.164;4.488;2023-03-01T14:52:06;9.30;;;6.93;;
40745;SDS011;26454;51.164;4.488;2023-03-01T14:54:40;9.15;;;7.00;;
40745;SDS011;26454;51.164;4.488;2023-03-01T14:57:15;9.95;;;7.32;;
40745;SDS011;26454;51.164;4.488;2023-03-01T14:59:42;10.15;;;7.25;;
40745;SDS011;26454;51.164;4.488;2023-03-01T15:02:10;11.57;;;7.68;;
40745;SDS011;26454;51.164;4.488;2023-03-01T15:04:42;15.77;;;8.18;;
40745;SDS011;26454;51.164;4.488;2023-03-01T15:07:09;12.80;;;7.88;;
40745;SDS011;26454;51.164;4.488;2023-03-01T15:09:39;9.98;;;7.90;;
40745;SDS011;26454;51.164;4.488;2023-03-01T15:14:41;8.80;;;7.53;;
40745;SDS011;26454;51.164;4.488;2023-03-01T15:19:45;8.02;;;6.70;;
40745;SDS011;26454;51.164;4.488;2023-03-01T15:22:14;9.30;;;7.40;;
40745;SDS011;26454;51.164;4.488;2023-03-01T15:24:44;13.27;;;7.88;;
40745;SDS011;26454;51.164;4.488;2023-03-01T15:27:14;12.55;;;8.35;;
40745;SDS011;26454;51.164;4.488;2023-03-01T15:29:41;11.48;;;7.65;;
40745;SDS011;26454;51.164;4.488;2023-03-01T15:34:49;14.90;;;7.93;;
40745;SDS011;26454;51.164;4.488;2023-03-01T15:37:35;9.65;;;7.63;;
40745;SDS011;26454;51.164;4.488;2023-03-01T15:40:02;12.98;;;7.38;;
40745;SDS011;26454;51.164;4.488;2023-03-01T15:42:37;11.73;;;6.78;;
40745;SDS011;26454;51.164;4.488;2023-03-01T15:45:08;12.77;;;7.95;;
40745;SDS011;26454;51.164;4.488;2023-03-01T15:47:34;13.52;;;7.25;;
40745;SDS011;26454;51.164;4.488;2023-03-01T15:50:01;12.27;;;7.70;;
40745;SDS011;26454;51.164;4.488;2023-03-01T15:52:29;10.57;;;8.68;;
40745;SDS011;26454;51.164;4.488;2023-03-01T15:54:56;15.32;;;7.70;;
40745;SDS011;26454;51.164;4.488;2023-03-01T15:57:24;13.85;;;8.57;;
40745;SDS011;26454;51.164;4.488;2023-03-01T15:59:52;8.68;;;7.55;;
40745;SDS011;26454;51.164;4.488;2023-03-01T16:02:20;15.13;;;7.45;;
40745;SDS011;26454;51.164;4.488;2023-03-01T16:04:46;11.52;;;8.27;;
40745;SDS011;26454;51.164;4.488;2023-03-01T16:07:14;13.20;;;7.38;;